createdAt,value
2023-02-04T00:01:18.631Z,8.70
2023-02-04T00:02:51.596Z,8.70
2023-02-04T00:04:24.289Z,8.80
2023-02-04T00:05:57.040Z,8.70
2023-02-04T00:07:29.724Z,8.70
2023-02-04T00:09:02.414Z,8.70
2023-02-04T00:10:35.552Z,8.70
2023-02-04T00:12:10.621Z,8.70
2023-02-04T00:13:43.330Z,8.70
2023-02-04T00:15:16.088Z,8.70
2023-02-04T00:16:50.124Z,8.70
2023-02-04T00:18:22.885Z,8.70
2023-02-04T00:19:55.578Z,8.70
2023-02-04T00:21:27.308Z,8.70
2023-02-04T00:23:00.188Z,8.70
2023-02-04T00:24:31.922Z,8.70
2023-02-04T00:26:05.168Z,8.70
2023-02-04T00:27:37.944Z,8.70
2023-02-04T00:29:10.699Z,8.70
2023-02-04T00:30:43.424Z,8.70
2023-02-04T00:32:17.583Z,8.70
2023-02-04T00:33:50.382Z,8.80
2023-02-04T00:35:23.617Z,8.70
2023-02-04T00:36:56.310Z,8.70
2023-02-04T00:38:29.008Z,8.70
2023-02-04T00:40:01.912Z,8.70
2023-02-04T00:41:34.611Z,8.70
2023-02-04T00:43:07.297Z,8.70
2023-02-04T00:44:39.992Z,8.70
2023-02-04T00:46:13.184Z,8.70
2023-02-04T00:47:47.229Z,8.70
2023-02-04T00:49:19.984Z,8.60
2023-02-04T00:50:53.972Z,8.60
2023-02-04T00:52:25.775Z,8.60
2023-02-04T00:53:58.470Z,8.60
2023-02-04T00:55:31.198Z,8.60
2023-02-04T00:57:04.016Z,8.60
2023-02-04T00:58:36.780Z,8.60
2023-02-04T01:00:11.151Z,8.60
2023-02-04T01:01:44.578Z,8.60
2023-02-04T01:03:17.655Z,8.60
2023-02-04T01:04:50.390Z,8.60
2023-02-04T01:06:23.155Z,8.60
2023-02-04T01:07:55.924Z,8.60
2023-02-04T01:09:28.645Z,8.60
2023-02-04T01:11:01.331Z,8.60
2023-02-04T01:12:34.170Z,8.60
2023-02-04T01:14:07.128Z,8.50
2023-02-04T01:15:39.835Z,8.50
2023-02-04T01:17:12.515Z,8.50
2023-02-04T01:18:46.785Z,8.50
2023-02-04T01:20:19.741Z,8.50
2023-02-04T01:21:51.518Z,8.50
2023-02-04T01:23:24.204Z,8.50
2023-02-04T01:24:56.913Z,8.50
2023-02-04T01:26:29.654Z,8.50
2023-02-04T01:28:02.390Z,8.50
2023-02-04T01:29:34.157Z,8.50
2023-02-04T01:31:06.966Z,8.50
2023-02-04T01:32:39.730Z,8.40
2023-02-04T01:34:13.743Z,8.40
2023-02-04T01:35:46.550Z,8.40
2023-02-04T01:37:18.269Z,8.40
2023-02-04T01:38:51.298Z,8.40
2023-02-04T01:40:24.099Z,8.40
2023-02-04T01:41:57.838Z,8.40
2023-02-04T01:43:30.762Z,8.40
2023-02-04T01:45:02.921Z,8.40
2023-02-04T01:46:37.326Z,8.40
2023-02-04T01:48:11.211Z,8.40
2023-02-04T01:49:44.671Z,8.40
2023-02-04T01:51:21.968Z,8.40
2023-02-04T01:52:54.822Z,8.40
2023-02-04T01:54:28.443Z,8.40
2023-02-04T01:56:01.692Z,8.40
2023-02-04T01:57:34.270Z,8.40
2023-02-04T01:59:13.214Z,8.40
2023-02-04T02:00:46.295Z,8.40
2023-02-04T02:02:41.717Z,8.40
2023-02-04T02:04:17.305Z,8.40
2023-02-04T02:05:54.682Z,8.40
2023-02-04T02:07:26.422Z,8.40
2023-02-04T02:08:59.422Z,8.40
2023-02-04T02:10:33.425Z,8.40
2023-02-04T02:12:05.580Z,8.40
2023-02-04T02:13:38.276Z,8.40
2023-02-04T02:15:11.337Z,8.40
2023-02-04T02:16:44.190Z,8.40
2023-02-04T02:18:17.203Z,8.30
2023-02-04T02:19:50.050Z,8.30
2023-02-04T02:21:33.266Z,8.30
2023-02-04T02:23:14.149Z,8.40
2023-02-04T02:24:48.156Z,8.30
2023-02-04T02:26:22.659Z,8.30
2023-02-04T02:27:56.285Z,8.30
2023-02-04T02:29:29.245Z,8.30
2023-02-04T02:31:02.207Z,8.30
2023-02-04T02:32:35.292Z,8.30
2023-02-04T02:34:07.029Z,8.30
2023-02-04T02:35:39.751Z,8.30
2023-02-04T02:37:11.761Z,8.30
2023-02-04T02:38:45.646Z,8.30
2023-02-04T02:40:19.945Z,8.30
2023-02-04T02:41:52.719Z,8.30
2023-02-04T02:43:27.742Z,8.30
2023-02-04T02:45:00.802Z,8.30
2023-02-04T02:46:33.813Z,8.30
2023-02-04T02:48:05.814Z,8.30
2023-02-04T02:49:40.731Z,8.30
2023-02-04T02:51:13.527Z,8.30
2023-02-04T02:52:45.309Z,8.30
2023-02-04T02:54:24.040Z,8.30
2023-02-04T02:55:58.102Z,8.30
2023-02-04T02:57:30.838Z,8.30
2023-02-04T02:59:14.474Z,8.30
2023-02-04T03:00:47.474Z,8.30
2023-02-04T03:02:22.858Z,8.30
2023-02-04T03:03:55.650Z,8.30
2023-02-04T03:05:31.338Z,8.30
2023-02-04T03:07:04.503Z,8.30
2023-02-04T03:08:37.684Z,8.30
2023-02-04T03:10:10.751Z,8.30
2023-02-04T03:11:44.900Z,8.30
2023-02-04T03:13:19.069Z,8.30
2023-02-04T03:14:51.827Z,8.30
2023-02-04T03:16:24.537Z,8.30
2023-02-04T03:17:57.483Z,8.30
2023-02-04T03:19:30.278Z,8.30
2023-02-04T03:21:05.735Z,8.30
2023-02-04T03:22:38.689Z,8.30
2023-02-04T03:24:11.460Z,8.30
2023-02-04T03:25:44.870Z,8.20
2023-02-04T03:27:18.805Z,8.30
2023-02-04T03:28:51.517Z,8.20
2023-02-04T03:30:23.984Z,8.20
2023-02-04T03:31:56.912Z,8.20
2023-02-04T03:33:31.454Z,8.20
2023-02-04T03:35:04.651Z,8.20
2023-02-04T03:36:36.613Z,8.20
2023-02-04T03:38:09.310Z,8.20
2023-02-04T03:39:41.993Z,8.20
2023-02-04T03:41:14.677Z,8.20
2023-02-04T03:42:48.706Z,8.20
2023-02-04T03:44:22.380Z,8.20
2023-02-04T03:45:55.080Z,8.20
2023-02-04T03:47:26.908Z,8.20
2023-02-04T03:48:59.606Z,8.10
2023-02-04T03:50:32.590Z,8.20
2023-02-04T03:52:06.112Z,8.10
2023-02-04T03:53:38.791Z,8.10
2023-02-04T03:55:11.482Z,8.10
2023-02-04T03:56:44.202Z,8.00
2023-02-04T03:58:18.273Z,8.10
2023-02-04T03:59:50.977Z,8.00
2023-02-04T04:01:23.705Z,8.10
2023-02-04T04:02:57.379Z,8.00
2023-02-04T04:04:30.167Z,8.00
2023-02-04T04:06:01.979Z,8.00
2023-02-04T04:07:34.690Z,8.00
2023-02-04T04:09:07.573Z,7.90
2023-02-04T04:10:41.147Z,7.90
2023-02-04T04:12:14.666Z,7.90
2023-02-04T04:13:48.721Z,7.90
2023-02-04T04:15:20.524Z,7.90
2023-02-04T04:16:53.194Z,7.90
2023-02-04T04:18:25.933Z,7.80
2023-02-04T04:19:58.620Z,7.80
2023-02-04T04:21:31.330Z,7.80
2023-02-04T04:23:04.013Z,7.80
2023-02-04T04:24:36.705Z,7.80
2023-02-04T04:26:09.428Z,7.80
2023-02-04T04:27:42.125Z,7.70
2023-02-04T04:29:16.175Z,7.70
2023-02-04T04:30:48.929Z,7.70
2023-02-04T04:32:21.700Z,7.70
2023-02-04T04:33:54.398Z,7.70
2023-02-04T04:35:26.162Z,7.70
2023-02-04T04:36:58.864Z,7.70
2023-02-04T04:38:31.578Z,7.70
2023-02-04T04:40:03.627Z,7.70
2023-02-04T04:41:36.316Z,7.70
2023-02-04T04:43:09.070Z,7.70
2023-02-04T04:44:42.158Z,7.70
2023-02-04T04:46:14.900Z,7.70
2023-02-04T04:47:46.739Z,7.70
2023-02-04T04:49:19.439Z,7.70
2023-02-04T04:50:52.543Z,7.70
2023-02-04T04:52:25.246Z,7.70
2023-02-04T04:53:57.980Z,7.70
2023-02-04T04:55:30.778Z,7.70
2023-02-04T04:57:03.470Z,7.70
2023-02-04T04:58:36.228Z,7.70
2023-02-04T05:00:16.463Z,7.70
2023-02-04T05:01:49.157Z,7.70
2023-02-04T05:03:21.830Z,7.70
2023-02-04T05:04:53.568Z,7.70
2023-02-04T05:06:26.590Z,7.70
2023-02-04T05:07:59.251Z,7.70
2023-02-04T05:09:31.132Z,7.60
2023-02-04T05:11:03.876Z,7.70
2023-02-04T05:12:36.558Z,7.70
2023-02-04T05:14:09.235Z,7.70
2023-02-04T05:15:43.318Z,7.60
2023-02-04T05:17:16.010Z,7.60
2023-02-04T05:18:48.709Z,7.60
2023-02-04T05:20:21.417Z,7.60
2023-02-04T05:21:54.097Z,7.60
2023-02-04T05:23:25.834Z,7.60
2023-02-04T05:24:58.526Z,7.60
2023-02-04T05:26:31.473Z,7.60
2023-02-04T05:28:04.283Z,7.50
2023-02-04T05:29:36.064Z,7.50
2023-02-04T05:31:10.277Z,7.50
2023-02-04T05:32:43.104Z,7.50
2023-02-04T05:34:15.819Z,7.50
2023-02-04T05:35:49.913Z,7.50
2023-02-04T05:37:21.726Z,7.50
2023-02-04T05:38:54.474Z,7.50
2023-02-04T05:40:27.188Z,7.40
2023-02-04T05:41:59.887Z,7.40
2023-02-04T05:43:31.612Z,7.40
2023-02-04T05:45:04.603Z,7.50
2023-02-04T05:46:39.226Z,7.50
2023-02-04T05:48:11.922Z,7.40
2023-02-04T05:49:44.604Z,7.40
2023-02-04T05:51:17.317Z,7.40
2023-02-04T05:52:50.034Z,7.40
2023-02-04T05:54:22.836Z,7.40
2023-02-04T05:55:55.586Z,7.40
2023-02-04T05:57:27.336Z,7.50
2023-02-04T05:59:00.009Z,7.50
2023-02-04T06:00:33.017Z,7.50
2023-02-04T06:02:07.228Z,7.50
2023-02-04T06:03:39.961Z,7.50
2023-02-04T06:05:12.642Z,7.50
2023-02-04T06:06:45.574Z,7.50
2023-02-04T06:08:18.270Z,7.50
2023-02-04T06:09:50.975Z,7.40
2023-02-04T06:11:23.652Z,7.50
2023-02-04T06:12:56.317Z,7.40
2023-02-04T06:14:28.993Z,7.40
2023-02-04T06:16:00.783Z,7.40
2023-02-04T06:17:34.819Z,7.40
2023-02-04T06:19:06.560Z,7.40
2023-02-04T06:20:39.671Z,7.50
2023-02-04T06:22:12.355Z,7.40
2023-02-04T06:23:45.265Z,7.40
2023-02-04T06:25:17.137Z,7.40
2023-02-04T06:26:49.853Z,7.40
2023-02-04T06:28:22.542Z,7.40
2023-02-04T06:29:57.199Z,7.40
2023-02-04T06:31:30.041Z,7.40
2023-02-04T06:33:04.248Z,7.40
2023-02-04T06:34:36.941Z,7.40
2023-02-04T06:36:09.829Z,7.30
2023-02-04T06:37:42.501Z,7.30
2023-02-04T06:39:15.214Z,7.30
2023-02-04T06:40:49.350Z,7.30
2023-02-04T06:42:22.248Z,7.30
2023-02-04T06:43:54.922Z,7.30
2023-02-04T06:45:27.608Z,7.30
2023-02-04T06:47:00.292Z,7.30
2023-02-04T06:48:34.312Z,7.30
2023-02-04T06:50:07.593Z,7.30
2023-02-04T06:51:40.302Z,7.30
2023-02-04T06:53:12.982Z,7.30
2023-02-04T06:54:45.709Z,7.30
2023-02-04T06:56:18.387Z,7.30
2023-02-04T06:57:51.134Z,7.30
2023-02-04T06:59:25.288Z,7.20
2023-02-04T07:00:57.966Z,7.20
2023-02-04T07:02:30.682Z,7.20
2023-02-04T07:04:04.896Z,7.20
2023-02-04T07:05:37.836Z,7.30
2023-02-04T07:07:10.007Z,7.20
2023-02-04T07:08:42.768Z,7.30
2023-02-04T07:10:16.704Z,7.30
2023-02-04T07:11:49.425Z,7.30
2023-02-04T07:13:22.134Z,7.30
2023-02-04T07:14:54.817Z,7.30
2023-02-04T07:16:27.542Z,7.30
2023-02-04T07:18:00.258Z,7.30
2023-02-04T07:19:35.201Z,7.30
2023-02-04T07:21:07.934Z,7.20
2023-02-04T07:22:41.125Z,7.20
2023-02-04T07:24:13.805Z,7.30
2023-02-04T07:25:46.482Z,7.20
2023-02-04T07:27:19.241Z,7.20
2023-02-04T07:28:51.142Z,7.20
2023-02-04T07:30:23.835Z,7.20
2023-02-04T07:31:56.750Z,7.20
2023-02-04T07:33:29.466Z,7.20
2023-02-04T07:35:03.525Z,7.20
2023-02-04T07:36:36.241Z,7.20
2023-02-04T07:38:09.017Z,7.20
2023-02-04T07:39:41.738Z,7.20
2023-02-04T07:41:14.664Z,7.30
2023-02-04T07:42:47.538Z,7.20
2023-02-04T07:44:20.239Z,7.30
2023-02-04T07:45:52.987Z,7.30
2023-02-04T07:47:25.754Z,7.20
2023-02-04T07:48:58.523Z,7.30
2023-02-04T07:50:32.966Z,7.30
2023-02-04T07:52:06.008Z,7.20
2023-02-04T07:53:38.772Z,7.30
2023-02-04T07:55:11.576Z,7.20
2023-02-04T07:56:44.274Z,7.30
2023-02-04T07:58:16.949Z,7.30
2023-02-04T07:59:49.623Z,7.30
2023-02-04T08:01:22.392Z,7.30
2023-02-04T08:02:55.196Z,7.30
2023-02-04T08:04:28.006Z,7.30
2023-02-04T08:06:02.297Z,7.30
2023-02-04T08:07:35.058Z,7.30
2023-02-04T08:09:07.754Z,7.30
2023-02-04T08:10:40.449Z,7.30
2023-02-04T08:12:13.150Z,7.30
2023-02-04T08:13:45.842Z,7.30
2023-02-04T08:15:18.611Z,7.30
2023-02-04T08:16:51.292Z,7.30
2023-02-04T08:18:24.951Z,7.40
2023-02-04T08:19:57.735Z,7.30
2023-02-04T08:21:31.810Z,7.30
2023-02-04T08:23:03.533Z,7.30
2023-02-04T08:24:36.219Z,7.30
2023-02-04T08:26:11.040Z,7.30
2023-02-04T08:27:44.071Z,7.30
2023-02-04T08:29:16.841Z,7.30
2023-02-04T08:30:49.580Z,7.30
2023-02-04T08:32:22.320Z,7.40
2023-02-04T08:33:54.994Z,7.40
2023-02-04T08:35:27.770Z,7.40
2023-02-04T08:37:01.827Z,7.40
2023-02-04T08:38:34.564Z,7.40
2023-02-04T08:40:08.052Z,7.40
2023-02-04T08:41:40.774Z,7.40
2023-02-04T08:43:13.451Z,7.40
2023-02-04T08:44:46.135Z,7.50
2023-02-04T08:46:18.875Z,7.50
2023-02-04T08:47:51.704Z,7.50
2023-02-04T08:49:24.436Z,7.50
2023-02-04T08:50:57.176Z,7.60
2023-02-04T08:52:31.189Z,7.70
2023-02-04T08:54:03.924Z,7.70
2023-02-04T08:55:36.646Z,7.90
2023-02-04T08:57:09.530Z,8.00
2023-02-04T08:58:42.214Z,8.10
2023-02-04T09:00:16.022Z,8.10
2023-02-04T09:01:51.006Z,8.20
2023-02-04T09:03:23.946Z,8.20
2023-02-04T09:04:56.675Z,8.30
2023-02-04T09:06:29.528Z,8.40
2023-02-04T09:08:03.559Z,8.40
2023-02-04T09:09:36.261Z,8.50
2023-02-04T09:11:10.619Z,8.60
2023-02-04T09:12:43.619Z,8.70
2023-02-04T09:14:17.070Z,8.80
2023-02-04T09:15:49.786Z,8.90
2023-02-04T09:17:22.501Z,9.00
2023-02-04T09:18:55.217Z,9.00
2023-02-04T09:20:29.338Z,9.00
2023-02-04T09:22:02.160Z,9.00
2023-02-04T09:23:36.607Z,9.00
2023-02-04T09:25:09.869Z,9.00
2023-02-04T09:26:42.542Z,9.10
2023-02-04T09:28:17.097Z,9.10
2023-02-04T09:29:49.936Z,9.10
2023-02-04T09:31:22.832Z,9.20
2023-02-04T09:32:55.590Z,9.20
2023-02-04T09:34:28.284Z,9.20
2023-02-04T09:36:00.984Z,9.30
2023-02-04T09:37:33.712Z,9.30
2023-02-04T09:39:09.854Z,9.40
2023-02-04T09:40:45.175Z,9.40
2023-02-04T09:42:18.288Z,9.50
2023-02-04T09:43:51.221Z,9.50
2023-02-04T09:45:26.601Z,9.50
2023-02-04T09:47:01.613Z,9.50
2023-02-04T09:48:34.559Z,9.50
2023-02-04T09:50:13.825Z,9.60
2023-02-04T09:51:48.574Z,9.60
2023-02-04T09:53:24.007Z,9.60
2023-02-04T09:54:58.024Z,9.70
2023-02-04T09:56:31.949Z,9.70
2023-02-04T09:58:12.386Z,9.60
2023-02-04T09:59:45.740Z,9.60
2023-02-04T10:01:20.121Z,9.60
2023-02-04T10:02:53.392Z,9.70
2023-02-04T10:04:26.286Z,9.70
2023-02-04T10:05:59.002Z,9.80
2023-02-04T10:07:32.405Z,9.90
2023-02-04T10:09:05.216Z,9.90
2023-02-04T10:10:40.223Z,10.00
2023-02-04T10:12:12.978Z,10.00
2023-02-04T10:13:50.093Z,10.00
2023-02-04T10:15:23.525Z,10.10
2023-02-04T10:16:59.486Z,10.20
2023-02-04T10:18:34.694Z,10.20
2023-02-04T10:20:13.644Z,10.30
2023-02-04T10:21:46.834Z,10.40
2023-02-04T10:23:21.520Z,10.50
2023-02-04T10:24:54.225Z,10.50
2023-02-04T10:26:30.508Z,10.60
2023-02-04T10:28:03.309Z,10.60
2023-02-04T10:29:36.146Z,10.50
2023-02-04T10:31:30.163Z,10.50
2023-02-04T10:33:14.460Z,10.50
2023-02-04T10:34:47.158Z,10.50
2023-02-04T10:36:19.965Z,10.40
2023-02-04T10:38:05.043Z,10.30
2023-02-04T10:39:43.814Z,10.20
2023-02-04T10:41:16.499Z,10.20
2023-02-04T10:42:52.470Z,10.10
2023-02-04T10:44:28.895Z,10.00
2023-02-04T10:46:04.191Z,10.00
2023-02-04T10:47:36.936Z,10.00
2023-02-04T10:49:19.967Z,9.90
2023-02-04T10:50:53.424Z,9.80
2023-02-04T10:52:35.090Z,9.80
2023-02-04T10:54:30.363Z,9.80
2023-02-04T10:56:03.418Z,9.80
2023-02-04T10:57:40.134Z,9.70
2023-02-04T10:59:26.619Z,9.70
2023-02-04T11:00:59.520Z,9.70
2023-02-04T11:02:43.134Z,9.70
2023-02-04T11:04:15.863Z,9.70
2023-02-04T11:05:48.607Z,9.70
2023-02-04T11:07:22.423Z,9.70
2023-02-04T11:08:55.511Z,9.80
2023-02-04T11:10:32.266Z,9.80
2023-02-04T11:12:05.437Z,9.80
2023-02-04T11:13:42.656Z,9.90
2023-02-04T11:15:39.656Z,10.00
2023-02-04T11:17:20.879Z,10.10
2023-02-04T11:18:55.389Z,10.30
2023-02-04T11:20:33.567Z,10.40
2023-02-04T11:22:09.920Z,10.50
2023-02-04T11:23:42.731Z,10.60
2023-02-04T11:25:34.363Z,10.60
2023-02-04T11:27:19.451Z,10.70
2023-02-04T11:28:57.849Z,10.70
2023-02-04T11:30:34.217Z,10.80
2023-02-04T11:32:28.517Z,10.80
2023-02-04T11:34:11.228Z,10.90
2023-02-04T11:36:01.838Z,10.80
2023-02-04T11:37:39.332Z,10.80
2023-02-04T11:39:17.785Z,10.70
2023-02-04T11:40:57.597Z,10.70
2023-02-04T11:42:40.299Z,10.70
2023-02-04T11:44:13.660Z,10.60
2023-02-04T11:45:47.222Z,10.60
2023-02-04T11:47:21.851Z,10.50
2023-02-04T11:48:55.763Z,10.40
2023-02-04T11:50:31.488Z,10.30
2023-02-04T11:52:08.583Z,10.30
2023-02-04T11:53:41.431Z,10.20
2023-02-04T11:55:14.423Z,10.10
2023-02-04T11:56:47.740Z,10.10
2023-02-04T11:58:22.370Z,10.00
2023-02-04T11:59:55.209Z,10.00
2023-02-04T12:01:33.505Z,10.00
2023-02-04T12:03:22.646Z,10.00
2023-02-04T12:04:57.827Z,10.00
2023-02-04T12:06:32.958Z,10.00
2023-02-04T12:08:13.879Z,9.90
2023-02-04T12:09:49.180Z,9.90
2023-02-04T12:11:31.059Z,9.90
2023-02-04T12:13:13.973Z,10.00
2023-02-04T12:14:57.002Z,9.90
2023-02-04T12:16:29.673Z,9.90
2023-02-04T12:18:04.495Z,9.90
2023-02-04T12:19:38.538Z,9.90
2023-02-04T12:21:11.359Z,9.90
2023-02-04T12:22:44.033Z,9.90
2023-02-04T12:24:16.755Z,9.80
2023-02-04T12:25:49.588Z,9.80
2023-02-04T12:27:22.933Z,9.90
2023-02-04T12:28:55.893Z,10.00
2023-02-04T12:30:28.765Z,10.00
2023-02-04T12:32:01.548Z,10.00
2023-02-04T12:33:34.318Z,10.00
2023-02-04T12:35:08.957Z,10.00
2023-02-04T12:36:41.627Z,10.10
2023-02-04T12:38:14.332Z,10.10
2023-02-04T12:39:47.040Z,10.00
2023-02-04T12:41:19.860Z,10.10
2023-02-04T12:42:52.641Z,10.10
2023-02-04T12:44:25.362Z,10.20
2023-02-04T12:45:58.087Z,10.10
2023-02-04T12:47:30.753Z,10.20
2023-02-04T12:49:03.513Z,10.20
2023-02-04T12:50:37.558Z,10.20
2023-02-04T12:52:10.427Z,10.20
2023-02-04T12:53:43.133Z,10.20
2023-02-04T12:55:15.815Z,10.20
2023-02-04T12:56:49.366Z,10.10
2023-02-04T12:58:22.066Z,10.10
2023-02-04T12:59:57.674Z,10.10
2023-02-04T13:01:30.370Z,10.20
2023-02-04T13:03:03.095Z,10.20
2023-02-04T13:04:36.319Z,10.20
2023-02-04T13:06:10.353Z,10.20
2023-02-04T13:07:43.642Z,10.10
2023-02-04T13:09:16.409Z,10.10
2023-02-04T13:10:51.890Z,10.10
2023-02-04T13:12:24.585Z,10.00
2023-02-04T13:13:57.302Z,10.00
2023-02-04T13:15:30.104Z,9.90
2023-02-04T13:17:02.936Z,9.90
2023-02-04T13:18:35.662Z,10.00
2023-02-04T13:20:09.411Z,10.00
2023-02-04T13:21:43.484Z,10.00
2023-02-04T13:23:16.189Z,10.00
2023-02-04T13:24:48.881Z,10.00
2023-02-04T13:26:21.570Z,10.00
2023-02-04T13:27:54.284Z,10.00
2023-02-04T13:29:27.066Z,10.00
2023-02-04T13:30:59.796Z,9.90
2023-02-04T13:32:32.677Z,9.90
2023-02-04T13:34:05.362Z,9.90
2023-02-04T13:35:38.363Z,9.90
2023-02-04T13:37:12.442Z,9.80
2023-02-04T13:38:45.148Z,9.90
2023-02-04T13:40:18.163Z,9.80
2023-02-04T13:41:50.866Z,9.80
2023-02-04T13:43:23.590Z,9.80
2023-02-04T13:44:56.350Z,9.80
2023-02-04T13:46:29.325Z,9.80
2023-02-04T13:48:02.161Z,9.80
2023-02-04T13:49:34.877Z,9.80
2023-02-04T13:51:07.578Z,9.80
2023-02-04T13:52:41.611Z,9.80
2023-02-04T13:54:14.296Z,9.90
2023-02-04T13:55:47.008Z,9.80
2023-02-04T13:57:21.068Z,9.70
2023-02-04T13:58:53.859Z,9.80
2023-02-04T14:00:26.560Z,9.70
2023-02-04T14:02:00.156Z,9.60
2023-02-04T14:03:32.872Z,9.50
2023-02-04T14:05:06.193Z,9.40
2023-02-04T14:06:43.438Z,9.40
2023-02-04T14:08:18.982Z,9.30
2023-02-04T14:09:51.689Z,9.30
2023-02-04T14:11:24.368Z,9.30
2023-02-04T14:12:58.483Z,9.30
2023-02-04T14:14:31.200Z,9.30
2023-02-04T14:16:04.015Z,9.20
2023-02-04T14:17:36.853Z,9.20
2023-02-04T14:19:09.908Z,9.20
2023-02-04T14:20:42.888Z,9.10
2023-02-04T14:22:15.604Z,9.20
2023-02-04T14:23:49.851Z,9.20
2023-02-04T14:25:23.006Z,9.20
2023-02-04T14:26:56.252Z,9.20
2023-02-04T14:28:28.940Z,9.20
2023-02-04T14:30:01.678Z,9.20
2023-02-04T14:31:36.464Z,9.20
2023-02-04T14:33:09.738Z,9.20
2023-02-04T14:34:42.543Z,9.20
2023-02-04T14:36:15.229Z,9.20
2023-02-04T14:37:48.143Z,9.10
2023-02-04T14:39:22.233Z,9.10
2023-02-04T14:40:54.905Z,9.10
2023-02-04T14:42:27.594Z,9.10
2023-02-04T14:44:00.577Z,9.00
2023-02-04T14:45:33.259Z,9.00
2023-02-04T14:47:05.985Z,9.00
2023-02-04T14:48:38.787Z,9.00
2023-02-04T14:50:15.411Z,8.90
2023-02-04T14:51:48.104Z,8.90
2023-02-04T14:53:20.788Z,8.90
2023-02-04T14:54:55.059Z,8.80
2023-02-04T14:56:27.858Z,8.80
2023-02-04T14:58:00.608Z,8.90
2023-02-04T14:59:33.734Z,8.80
2023-02-04T15:01:06.455Z,8.80
2023-02-04T15:02:39.243Z,8.80
2023-02-04T15:04:12.169Z,8.90
2023-02-04T15:05:44.906Z,8.80
2023-02-04T15:07:18.282Z,8.80
2023-02-04T15:08:51.007Z,8.80
2023-02-04T15:10:25.394Z,8.80
2023-02-04T15:11:58.203Z,8.80
2023-02-04T15:13:30.930Z,8.80
2023-02-04T15:15:03.853Z,8.80
2023-02-04T15:16:36.639Z,8.80
2023-02-04T15:18:09.333Z,8.70
2023-02-04T15:19:42.016Z,8.70
2023-02-04T15:21:15.220Z,8.70
2023-02-04T15:22:51.644Z,8.60
2023-02-04T15:24:26.663Z,8.50
2023-02-04T15:26:00.703Z,8.50
2023-02-04T15:27:33.466Z,8.50
2023-02-04T15:29:07.216Z,8.40
2023-02-04T15:30:40.013Z,8.40
2023-02-04T15:32:12.756Z,8.40
2023-02-04T15:33:45.430Z,8.30
2023-02-04T15:35:18.172Z,8.40
2023-02-04T15:36:51.074Z,8.40
2023-02-04T15:38:23.997Z,8.40
2023-02-04T15:39:57.114Z,8.40
2023-02-04T15:41:31.182Z,8.40
2023-02-04T15:43:03.927Z,8.40
2023-02-04T15:44:36.597Z,8.40
2023-02-04T15:46:09.334Z,8.40
2023-02-04T15:47:42.070Z,8.30
2023-02-04T15:49:14.743Z,8.30
2023-02-04T15:50:47.513Z,8.30
2023-02-04T15:52:25.113Z,8.30
2023-02-04T15:53:58.168Z,8.20
2023-02-04T15:55:30.924Z,8.30
2023-02-04T15:57:05.076Z,8.20
2023-02-04T15:58:37.973Z,8.20
2023-02-04T16:00:11.900Z,8.20
2023-02-04T16:01:44.689Z,8.20
2023-02-04T16:03:17.399Z,8.20
2023-02-04T16:04:50.280Z,8.10
2023-02-04T16:06:24.969Z,8.10
2023-02-04T16:07:57.815Z,8.10
2023-02-04T16:09:30.494Z,8.10
2023-02-04T16:11:04.769Z,8.00
2023-02-04T16:12:39.801Z,8.00
2023-02-04T16:14:12.499Z,8.00
2023-02-04T16:15:45.238Z,8.00
2023-02-04T16:17:19.139Z,8.00
2023-02-04T16:18:51.902Z,7.90
2023-02-04T16:20:24.991Z,7.90
2023-02-04T16:21:57.784Z,7.90
2023-02-04T16:23:30.486Z,7.90
2023-02-04T16:25:03.407Z,7.80
2023-02-04T16:26:36.101Z,7.80
2023-02-04T16:28:10.174Z,7.80
2023-02-04T16:29:42.917Z,7.80
2023-02-04T16:31:16.292Z,7.70
2023-02-04T16:32:49.262Z,7.70
2023-02-04T16:34:22.029Z,7.70
2023-02-04T16:36:00.898Z,7.70
2023-02-04T16:37:34.114Z,7.70
2023-02-04T16:39:06.813Z,7.70
2023-02-04T16:40:39.506Z,7.60
2023-02-04T16:42:12.468Z,7.60
2023-02-04T16:43:46.524Z,7.60
2023-02-04T16:45:19.474Z,7.60
2023-02-04T16:46:52.282Z,7.50
2023-02-04T16:48:25.373Z,7.50
2023-02-04T16:50:00.776Z,7.50
2023-02-04T16:51:33.478Z,7.50
2023-02-04T16:53:06.218Z,7.40
2023-02-04T16:54:38.943Z,7.40
2023-02-04T16:56:11.683Z,7.30
2023-02-04T16:57:44.357Z,7.30
2023-02-04T16:59:18.412Z,7.30
2023-02-04T17:00:51.137Z,7.30
2023-02-04T17:02:23.834Z,7.20
2023-02-04T17:03:58.269Z,7.20
2023-02-04T17:05:31.440Z,7.20
2023-02-04T17:07:05.225Z,7.20
2023-02-04T17:08:37.917Z,7.20
2023-02-04T17:10:11.150Z,7.20
2023-02-04T17:11:42.932Z,7.20
2023-02-04T17:13:15.781Z,7.20
2023-02-04T17:14:49.816Z,7.20
2023-02-04T17:16:22.633Z,7.20
2023-02-04T17:17:55.350Z,7.20
2023-02-04T17:19:28.089Z,7.20
2023-02-04T17:21:01.194Z,7.20
2023-02-04T17:22:34.885Z,7.10
2023-02-04T17:24:08.531Z,7.10
2023-02-04T17:25:41.232Z,7.20
2023-02-04T17:27:14.245Z,7.20
2023-02-04T17:28:47.065Z,7.20
2023-02-04T17:30:22.012Z,7.10
2023-02-04T17:31:55.812Z,7.10
2023-02-04T17:33:28.948Z,7.10
2023-02-04T17:35:01.999Z,7.10
2023-02-04T17:36:34.763Z,7.10
2023-02-04T17:38:07.483Z,7.10
2023-02-04T17:39:40.160Z,7.10
2023-02-04T17:41:12.858Z,7.00
2023-02-04T17:42:45.566Z,7.00
2023-02-04T17:44:19.961Z,7.00
2023-02-04T17:45:53.979Z,7.00
2023-02-04T17:47:26.676Z,7.00
2023-02-04T17:48:59.649Z,7.00
2023-02-04T17:50:34.135Z,7.10
2023-02-04T17:52:06.841Z,7.10
2023-02-04T17:53:40.428Z,7.00
2023-02-04T17:55:20.253Z,7.00
2023-02-04T17:56:52.964Z,7.00
2023-02-04T17:58:27.895Z,7.10
2023-02-04T18:00:02.083Z,7.10
2023-02-04T18:01:36.511Z,7.10
2023-02-04T18:03:13.493Z,7.10
2023-02-04T18:04:46.380Z,7.10
2023-02-04T18:06:22.082Z,7.10
2023-02-04T18:08:00.773Z,7.10
2023-02-04T18:09:33.923Z,7.10
2023-02-04T18:11:16.289Z,7.10
2023-02-04T18:12:49.380Z,7.00
2023-02-04T18:14:27.600Z,7.00
2023-02-04T18:16:02.780Z,7.00
2023-02-04T18:17:36.898Z,7.00
2023-02-04T18:19:18.945Z,7.00
2023-02-04T18:21:00.010Z,7.00
2023-02-04T18:22:34.144Z,6.90
2023-02-04T18:24:17.294Z,6.90
2023-02-04T18:25:50.002Z,6.90
2023-02-04T18:27:25.013Z,6.90
2023-02-04T18:28:59.675Z,6.90
2023-02-04T18:30:33.087Z,6.90
2023-02-04T18:32:14.714Z,6.90
2023-02-04T18:33:49.881Z,6.80
2023-02-04T18:35:41.429Z,6.80
2023-02-04T18:37:31.794Z,6.80
2023-02-04T18:39:16.454Z,6.80
2023-02-04T18:40:49.509Z,6.80
2023-02-04T18:42:27.083Z,6.70
2023-02-04T18:44:03.123Z,6.70
2023-02-04T18:45:36.725Z,6.70
2023-02-04T18:47:24.764Z,6.80
2023-02-04T18:49:05.710Z,6.80
2023-02-04T18:50:38.902Z,6.70
2023-02-04T18:52:18.543Z,6.70
2023-02-04T18:53:51.746Z,6.70
2023-02-04T18:55:30.297Z,6.60
2023-02-04T18:57:30.334Z,6.60
2023-02-04T18:59:11.078Z,6.50
2023-02-04T19:00:45.077Z,6.50
2023-02-04T19:02:30.219Z,6.40
2023-02-04T19:04:13.382Z,6.40
2023-02-04T19:05:49.908Z,6.40
2023-02-04T19:07:22.610Z,6.30
2023-02-04T19:09:05.011Z,6.30
2023-02-04T19:10:40.231Z,6.30
2023-02-04T19:12:22.124Z,6.30
2023-02-04T19:13:57.808Z,6.30
2023-02-04T19:15:39.499Z,6.30
2023-02-04T19:17:23.110Z,6.30
2023-02-04T19:18:57.626Z,6.40
2023-02-04T19:20:32.179Z,6.40
2023-02-04T19:22:19.508Z,6.40
2023-02-04T19:23:56.564Z,6.40
2023-02-04T19:25:33.211Z,6.40
2023-02-04T19:27:29.068Z,6.40
2023-02-04T19:29:02.239Z,6.40
2023-02-04T19:30:46.030Z,6.40
2023-02-04T19:32:27.323Z,6.30
2023-02-04T19:34:01.461Z,6.30
2023-02-04T19:35:43.086Z,6.20
2023-02-04T19:37:22.531Z,6.20
2023-02-04T19:38:59.449Z,6.20
2023-02-04T19:40:34.495Z,6.10
2023-02-04T19:42:23.998Z,6.10
2023-02-04T19:44:09.610Z,6.10
2023-02-04T19:45:42.884Z,6.10
2023-02-04T19:47:25.740Z,6.10
2023-02-04T19:48:59.045Z,6.20
2023-02-04T19:50:35.043Z,6.20
2023-02-04T19:52:29.694Z,6.10
2023-02-04T19:54:12.667Z,6.10
2023-02-04T19:55:47.373Z,6.20
2023-02-04T19:57:25.866Z,6.10
2023-02-04T19:58:58.812Z,6.00
2023-02-04T20:00:46.814Z,6.00
2023-02-04T20:02:30.594Z,5.90
2023-02-04T20:04:07.785Z,5.90
2023-02-04T20:05:42.046Z,5.90
2023-02-04T20:07:20.105Z,5.90
2023-02-04T20:08:57.955Z,5.90
2023-02-04T20:10:30.662Z,5.90
2023-02-04T20:12:06.607Z,5.80
2023-02-04T20:13:38.470Z,5.90
2023-02-04T20:15:17.837Z,5.80
2023-02-04T20:16:52.143Z,5.80
2023-02-04T20:18:26.340Z,5.80
2023-02-04T20:20:03.292Z,5.80
2023-02-04T20:21:35.965Z,5.80
2023-02-04T20:23:23.416Z,5.80
2023-02-04T20:25:06.858Z,5.80
2023-02-04T20:26:39.626Z,5.80
2023-02-04T20:28:40.919Z,5.90
2023-02-04T20:30:27.089Z,5.90
2023-02-04T20:31:59.796Z,5.90
2023-02-04T20:33:42.356Z,5.90
2023-02-04T20:35:49.924Z,5.90
2023-02-04T20:37:27.199Z,5.90
2023-02-04T20:39:14.984Z,5.90
2023-02-04T20:40:49.037Z,5.90
2023-02-04T20:42:31.113Z,5.90
2023-02-04T20:44:13.535Z,5.90
2023-02-04T20:45:50.492Z,5.90
2023-02-04T20:47:25.746Z,5.90
2023-02-04T20:48:58.435Z,5.80
2023-02-04T20:50:38.154Z,5.80
2023-02-04T20:52:51.248Z,5.80
2023-02-04T20:54:23.942Z,5.80